CNY3 weather

Collingwood Airport
Collingwood, Ontario, Canada

Public forecast

Using degrees Celsius for public forecast. Weather courtesy of forecast.io.

METAR (pilot weather report)

Closest report is CFB Borden, 15.0 nm (27.8 km) SE. Retrieved 2019/04/20 23:26 UTC (27 minutes ago):

CYBN 202326Z AUTO 33006KT 290V010 9SM OVC004 OVC073 07/07 A2970

TAF (pilot weather forecast)

Forecast is more than 12 hours old.

Closest forecast is CFB Borden, 15.0 nm (27.8 km) SE. Retrieved 2019/04/17 00:33 UTC (4 days ago):

TAF TAF CYBN 172330Z 1800/1812 14012KT P6SM SCT080 BKN240 FM180200 12010KT P6SM SCT020 OVC040 TEMPO 1802/1806 4SM -SHRA BR SCT008 OVC020 FM180600 16012KT P6SM SCT008 OVC025 TEMPO 1806/1812 4SM BR OVC008 RMK FCST BASED ON AUTO OBS. NXT FCST BY 180600Z